Rhodesville, Connecticut
Current Conditions -  °F | °C
As of 3:52 AM on Friday 24 Oct 2014 (Local Time) from KIJD Reporting Station
Overcast Overcast  
Wind Chill: 51°   Ceiling: 1100
Heat Index: 51°   Visibility: 10mi
Dew Point: 46°   Wind: 13mph
Humidity: 83%   Direction: 330°NNW
Pressure: 29.69"   Gusts: NA
Location:  41.91°N, 71.8739°W
Report Text: KIJD 240752Z AUTO 33011KT 10SM OVC011 11/08 A2969 RMK AO2 SLP054 T01060078
Loading
Personal Weather Stations






























Interactive Weather Map
Tropical Storm Tracking
New forecast layout! Learn more

10-Day Weather Forecast

Advertisements
Track Severe Weather on mobile